sensor_id;sensor_type;location;lat;lon;timestamp;P1;durP1;ratioP1;P2;durP2;ratioP2
9304;SDS011;4690;52.422;13.486;2022-07-21T00:05:23;7.10;;;6.35;;
9304;SDS011;4690;52.422;13.486;2022-07-21T00:07:51;7.00;;;6.40;;
9304;SDS011;4690;52.422;13.486;2022-07-21T00:10:17;8.98;;;7.28;;
9304;SDS011;4690;52.422;13.486;2022-07-21T00:12:46;7.13;;;6.53;;
9304;SDS011;4690;52.422;13.486;2022-07-21T00:15:13;7.72;;;6.93;;
9304;SDS011;4690;52.422;13.486;2022-07-21T00:17:41;7.68;;;6.82;;
9304;SDS011;4690;52.422;13.486;2022-07-21T00:20:08;7.45;;;6.68;;
9304;SDS011;4690;52.422;13.486;2022-07-21T00:22:36;9.27;;;7.50;;
9304;SDS011;4690;52.422;13.486;2022-07-21T00:25:03;12.10;;;6.63;;
9304;SDS011;4690;52.422;13.486;2022-07-21T00:27:31;9.07;;;7.22;;
9304;SDS011;4690;52.422;13.486;2022-07-21T00:29:57;9.23;;;7.10;;
9304;SDS011;4690;52.422;13.486;2022-07-21T00:32:23;11.23;;;7.22;;
9304;SDS011;4690;52.422;13.486;2022-07-21T00:34:49;8.70;;;7.80;;
9304;SDS011;4690;52.422;13.486;2022-07-21T00:37:15;9.82;;;7.05;;
9304;SDS011;4690;52.422;13.486;2022-07-21T00:39:41;11.82;;;7.20;;
9304;SDS011;4690;52.422;13.486;2022-07-21T00:42:06;10.32;;;6.88;;
9304;SDS011;4690;52.422;13.486;2022-07-21T00:44:32;7.97;;;6.93;;
9304;SDS011;4690;52.422;13.486;2022-07-21T00:46:58;10.18;;;7.13;;
9304;SDS011;4690;52.422;13.486;2022-07-21T00:49:24;10.27;;;6.70;;
9304;SDS011;4690;52.422;13.486;2022-07-21T00:51:50;8.25;;;7.43;;
9304;SDS011;4690;52.422;13.486;2022-07-21T00:54:18;11.88;;;7.32;;
9304;SDS011;4690;52.422;13.486;2022-07-21T00:56:44;9.27;;;6.93;;
9304;SDS011;4690;52.422;13.486;2022-07-21T00:59:11;7.22;;;6.53;;
9304;SDS011;4690;52.422;13.486;2022-07-21T01:01:37;8.95;;;6.50;;
9304;SDS011;4690;52.422;13.486;2022-07-21T01:04:03;9.52;;;7.15;;
9304;SDS011;4690;52.422;13.486;2022-07-21T01:06:29;8.80;;;6.97;;
9304;SDS011;4690;52.422;13.486;2022-07-21T01:08:55;11.13;;;7.30;;
9304;SDS011;4690;52.422;13.486;2022-07-21T01:11:22;8.18;;;7.10;;
9304;SDS011;4690;52.422;13.486;2022-07-21T01:13:50;7.68;;;6.85;;
9304;SDS011;4690;52.422;13.486;2022-07-21T01:16:16;8.10;;;7.30;;
9304;SDS011;4690;52.422;13.486;2022-07-21T01:18:42;8.07;;;6.65;;
9304;SDS011;4690;52.422;13.486;2022-07-21T01:21:50;8.75;;;6.85;;
9304;SDS011;4690;52.422;13.486;2022-07-21T01:23:59;9.30;;;7.15;;
9304;SDS011;4690;52.422;13.486;2022-07-21T01:26:26;7.72;;;6.88;;
9304;SDS011;4690;52.422;13.486;2022-07-21T01:28:54;9.48;;;6.65;;
9304;SDS011;4690;52.422;13.486;2022-07-21T01:31:21;12.02;;;7.18;;
9304;SDS011;4690;52.422;13.486;2022-07-21T01:33:47;7.93;;;6.97;;
9304;SDS011;4690;52.422;13.486;2022-07-21T01:36:14;8.80;;;7.18;;
9304;SDS011;4690;52.422;13.486;2022-07-21T01:38:40;7.78;;;6.90;;
9304;SDS011;4690;52.422;13.486;2022-07-21T01:41:24;7.63;;;6.68;;
9304;SDS011;4690;52.422;13.486;2022-07-21T01:43:57;11.63;;;7.35;;
9304;SDS011;4690;52.422;13.486;2022-07-21T01:46:27;7.95;;;6.80;;
9304;SDS011;4690;52.422;13.486;2022-07-21T01:48:55;9.75;;;6.82;;
9304;SDS011;4690;52.422;13.486;2022-07-21T01:51:22;11.80;;;7.50;;
9304;SDS011;4690;52.422;13.486;2022-07-21T01:53:48;9.13;;;7.20;;
9304;SDS011;4690;52.422;13.486;2022-07-21T01:56:14;11.63;;;7.05;;
9304;SDS011;4690;52.422;13.486;2022-07-21T01:58:40;8.82;;;6.90;;
9304;SDS011;4690;52.422;13.486;2022-07-21T02:01:05;8.20;;;7.10;;
9304;SDS011;4690;52.422;13.486;2022-07-21T02:03:31;10.80;;;7.47;;
9304;SDS011;4690;52.422;13.486;2022-07-21T02:06:03;8.70;;;6.50;;
9304;SDS011;4690;52.422;13.486;2022-07-21T02:08:30;8.93;;;7.00;;
9304;SDS011;4690;52.422;13.486;2022-07-21T02:10:57;10.65;;;7.88;;
9304;SDS011;4690;52.422;13.486;2022-07-21T02:13:23;8.77;;;7.38;;
9304;SDS011;4690;52.422;13.486;2022-07-21T02:15:49;8.68;;;7.18;;
9304;SDS011;4690;52.422;13.486;2022-07-21T02:18:15;9.40;;;7.10;;
9304;SDS011;4690;52.422;13.486;2022-07-21T02:20:41;10.52;;;7.63;;
9304;SDS011;4690;52.422;13.486;2022-07-21T02:23:06;9.13;;;6.95;;
9304;SDS011;4690;52.422;13.486;2022-07-21T02:25:32;7.85;;;6.80;;
9304;SDS011;4690;52.422;13.486;2022-07-21T02:27:58;8.20;;;7.05;;
9304;SDS011;4690;52.422;13.486;2022-07-21T02:30:24;8.82;;;6.68;;
9304;SDS011;4690;52.422;13.486;2022-07-21T02:32:49;8.90;;;6.82;;
9304;SDS011;4690;52.422;13.486;2022-07-21T02:35:15;12.25;;;7.50;;
9304;SDS011;4690;52.422;13.486;2022-07-21T02:37:41;11.68;;;7.22;;
9304;SDS011;4690;52.422;13.486;2022-07-21T02:40:07;9.93;;;7.40;;
9304;SDS011;4690;52.422;13.486;2022-07-21T02:42:33;10.27;;;7.47;;
9304;SDS011;4690;52.422;13.486;2022-07-21T02:44:59;8.52;;;7.20;;
9304;SDS011;4690;52.422;13.486;2022-07-21T02:47:25;7.90;;;7.20;;
9304;SDS011;4690;52.422;13.486;2022-07-21T02:49:50;9.75;;;7.22;;
9304;SDS011;4690;52.422;13.486;2022-07-21T02:52:16;9.93;;;6.70;;
9304;SDS011;4690;52.422;13.486;2022-07-21T02:54:41;7.53;;;6.65;;
9304;SDS011;4690;52.422;13.486;2022-07-21T02:57:07;8.90;;;7.10;;
9304;SDS011;4690;52.422;13.486;2022-07-21T02:59:33;8.23;;;7.30;;
9304;SDS011;4690;52.422;13.486;2022-07-21T03:01:59;8.43;;;7.20;;
9304;SDS011;4690;52.422;13.486;2022-07-21T03:04:24;7.75;;;6.97;;
9304;SDS011;4690;52.422;13.486;2022-07-21T03:06:50;7.47;;;6.80;;
9304;SDS011;4690;52.422;13.486;2022-07-21T03:09:16;8.57;;;6.50;;
9304;SDS011;4690;52.422;13.486;2022-07-21T03:11:41;8.15;;;7.10;;
9304;SDS011;4690;52.422;13.486;2022-07-21T03:14:07;8.73;;;6.57;;
9304;SDS011;4690;52.422;13.486;2022-07-21T03:16:33;7.30;;;6.50;;
9304;SDS011;4690;52.422;13.486;2022-07-21T03:18:58;7.60;;;6.85;;
9304;SDS011;4690;52.422;13.486;2022-07-21T03:21:24;7.18;;;6.45;;
9304;SDS011;4690;52.422;13.486;2022-07-21T03:23:50;9.15;;;6.90;;
9304;SDS011;4690;52.422;13.486;2022-07-21T03:26:16;9.48;;;6.55;;
9304;SDS011;4690;52.422;13.486;2022-07-21T03:28:42;8.70;;;6.55;;
9304;SDS011;4690;52.422;13.486;2022-07-21T03:31:09;10.40;;;6.18;;
9304;SDS011;4690;52.422;13.486;2022-07-21T03:33:35;7.78;;;6.40;;
9304;SDS011;4690;52.422;13.486;2022-07-21T03:36:01;7.75;;;5.88;;
9304;SDS011;4690;52.422;13.486;2022-07-21T03:38:28;7.63;;;6.35;;
9304;SDS011;4690;52.422;13.486;2022-07-21T03:40:54;6.85;;;6.18;;
9304;SDS011;4690;52.422;13.486;2022-07-21T03:43:19;8.65;;;6.28;;
9304;SDS011;4690;52.422;13.486;2022-07-21T03:45:45;6.32;;;5.65;;
9304;SDS011;4690;52.422;13.486;2022-07-21T03:48:11;10.27;;;5.97;;
9304;SDS011;4690;52.422;13.486;2022-07-21T03:50:39;10.68;;;6.03;;
9304;SDS011;4690;52.422;13.486;2022-07-21T03:53:07;6.40;;;5.78;;
9304;SDS011;4690;52.422;13.486;2022-07-21T03:55:34;10.10;;;5.57;;
9304;SDS011;4690;52.422;13.486;2022-07-21T03:58:01;6.00;;;5.40;;
9304;SDS011;4690;52.422;13.486;2022-07-21T04:00:30;9.25;;;5.63;;
9304;SDS011;4690;52.422;13.486;2022-07-21T04:03:00;8.32;;;5.78;;
9304;SDS011;4690;52.422;13.486;2022-07-21T04:05:26;8.52;;;5.43;;
9304;SDS011;4690;52.422;13.486;2022-07-21T04:07:53;7.03;;;5.55;;
9304;SDS011;4690;52.422;13.486;2022-07-21T04:10:24;8.15;;;5.97;;
9304;SDS011;4690;52.422;13.486;2022-07-21T04:12:53;7.85;;;6.13;;
9304;SDS011;4690;52.422;13.486;2022-07-21T04:15:22;6.70;;;6.00;;
9304;SDS011;4690;52.422;13.486;2022-07-21T04:17:48;8.25;;;6.05;;
9304;SDS011;4690;52.422;13.486;2022-07-21T04:20:15;8.60;;;6.35;;
9304;SDS011;4690;52.422;13.486;2022-07-21T04:22:42;8.40;;;5.90;;
9304;SDS011;4690;52.422;13.486;2022-07-21T04:25:10;7.15;;;5.93;;
9304;SDS011;4690;52.422;13.486;2022-07-21T04:27:37;7.32;;;5.70;;
9304;SDS011;4690;52.422;13.486;2022-07-21T04:30:03;6.68;;;6.07;;
9304;SDS011;4690;52.422;13.486;2022-07-21T04:32:32;6.43;;;5.72;;
9304;SDS011;4690;52.422;13.486;2022-07-21T04:34:59;9.70;;;6.38;;
9304;SDS011;4690;52.422;13.486;2022-07-21T04:37:25;8.32;;;6.20;;
9304;SDS011;4690;52.422;13.486;2022-07-21T04:39:52;7.60;;;6.38;;
9304;SDS011;4690;52.422;13.486;2022-07-21T04:42:18;9.05;;;6.55;;
9304;SDS011;4690;52.422;13.486;2022-07-21T04:44:44;7.85;;;6.57;;
9304;SDS011;4690;52.422;13.486;2022-07-21T04:47:09;10.07;;;7.13;;
9304;SDS011;4690;52.422;13.486;2022-07-21T04:49:35;9.45;;;7.20;;
9304;SDS011;4690;52.422;13.486;2022-07-21T04:52:01;10.77;;;7.00;;
9304;SDS011;4690;52.422;13.486;2022-07-21T04:54:27;11.07;;;6.70;;
9304;SDS011;4690;52.422;13.486;2022-07-21T04:56:53;7.68;;;6.97;;
9304;SDS011;4690;52.422;13.486;2022-07-21T04:59:20;7.55;;;6.78;;
9304;SDS011;4690;52.422;13.486;2022-07-21T05:01:46;11.30;;;8.10;;
9304;SDS011;4690;52.422;13.486;2022-07-21T05:04:12;10.43;;;7.93;;
9304;SDS011;4690;52.422;13.486;2022-07-21T05:06:37;14.48;;;8.10;;
9304;SDS011;4690;52.422;13.486;2022-07-21T05:09:03;11.68;;;8.93;;
9304;SDS011;4690;52.422;13.486;2022-07-21T05:11:29;11.35;;;8.80;;
9304;SDS011;4690;52.422;13.486;2022-07-21T05:13:55;9.65;;;8.00;;
9304;SDS011;4690;52.422;13.486;2022-07-21T05:16:21;10.25;;;9.23;;
9304;SDS011;4690;52.422;13.486;2022-07-21T05:18:47;17.75;;;10.40;;
9304;SDS011;4690;52.422;13.486;2022-07-21T05:21:13;14.60;;;10.40;;
9304;SDS011;4690;52.422;13.486;2022-07-21T05:23:38;12.98;;;11.40;;
9304;SDS011;4690;52.422;13.486;2022-07-21T05:26:04;14.25;;;12.52;;
9304;SDS011;4690;52.422;13.486;2022-07-21T05:28:30;20.35;;;13.00;;
9304;SDS011;4690;52.422;13.486;2022-07-21T05:30:56;15.88;;;13.30;;
9304;SDS011;4690;52.422;13.486;2022-07-21T05:33:21;15.13;;;12.70;;
9304;SDS011;4690;52.422;13.486;2022-07-21T05:35:47;13.45;;;11.52;;
9304;SDS011;4690;52.422;13.486;2022-07-21T05:38:13;15.43;;;12.70;;
9304;SDS011;4690;52.422;13.486;2022-07-21T05:40:39;16.10;;;12.35;;
9304;SDS011;4690;52.422;13.486;2022-07-21T05:43:05;14.45;;;13.05;;
9304;SDS011;4690;52.422;13.486;2022-07-21T05:45:30;13.80;;;12.50;;
9304;SDS011;4690;52.422;13.486;2022-07-21T05:47:56;16.65;;;13.25;;
9304;SDS011;4690;52.422;13.486;2022-07-21T05:50:22;17.75;;;13.45;;
9304;SDS011;4690;52.422;13.486;2022-07-21T05:52:48;17.70;;;14.48;;
9304;SDS011;4690;52.422;13.486;2022-07-21T05:55:14;19.75;;;15.50;;
9304;SDS011;4690;52.422;13.486;2022-07-21T05:57:40;17.10;;;15.20;;
9304;SDS011;4690;52.422;13.486;2022-07-21T06:00:06;20.60;;;16.17;;
9304;SDS011;4690;52.422;13.486;2022-07-21T06:02:33;18.13;;;15.93;;
9304;SDS011;4690;52.422;13.486;2022-07-21T06:04:59;19.70;;;16.15;;
9304;SDS011;4690;52.422;13.486;2022-07-21T06:07:25;20.83;;;15.93;;
9304;SDS011;4690;52.422;13.486;2022-07-21T06:09:51;16.98;;;14.50;;
9304;SDS011;4690;52.422;13.486;2022-07-21T06:12:17;18.45;;;16.20;;
9304;SDS011;4690;52.422;13.486;2022-07-21T06:14:43;16.63;;;14.95;;
9304;SDS011;4690;52.422;13.486;2022-07-21T06:17:09;16.60;;;15.00;;
9304;SDS011;4690;52.422;13.486;2022-07-21T06:19:35;16.17;;;14.65;;
9304;SDS011;4690;52.422;13.486;2022-07-21T06:22:00;17.60;;;15.80;;
9304;SDS011;4690;52.422;13.486;2022-07-21T06:24:27;17.30;;;15.40;;
9304;SDS011;4690;52.422;13.486;2022-07-21T06:26:54;19.05;;;16.77;;
9304;SDS011;4690;52.422;13.486;2022-07-21T06:29:23;17.50;;;15.70;;
9304;SDS011;4690;52.422;13.486;2022-07-21T06:31:49;18.33;;;16.38;;
9304;SDS011;4690;52.422;13.486;2022-07-21T06:34:16;17.30;;;15.57;;
9304;SDS011;4690;52.422;13.486;2022-07-21T06:36:42;16.55;;;14.90;;
9304;SDS011;4690;52.422;13.486;2022-07-21T06:39:08;22.20;;;16.15;;
9304;SDS011;4690;52.422;13.486;2022-07-21T06:41:37;23.40;;;15.82;;
9304;SDS011;4690;52.422;13.486;2022-07-21T06:44:04;18.52;;;15.80;;
9304;SDS011;4690;52.422;13.486;2022-07-21T06:46:31;17.90;;;15.77;;
9304;SDS011;4690;52.422;13.486;2022-07-21T06:48:58;21.02;;;15.85;;
9304;SDS011;4690;52.422;13.486;2022-07-21T06:51:24;20.25;;;15.90;;
9304;SDS011;4690;52.422;13.486;2022-07-21T06:53:49;19.33;;;14.48;;
9304;SDS011;4690;52.422;13.486;2022-07-21T06:56:16;16.50;;;14.77;;
9304;SDS011;4690;52.422;13.486;2022-07-21T06:58:43;18.08;;;15.43;;
9304;SDS011;4690;52.422;13.486;2022-07-21T07:01:09;16.75;;;14.95;;
9304;SDS011;4690;52.422;13.486;2022-07-21T07:03:35;17.42;;;14.73;;
9304;SDS011;4690;52.422;13.486;2022-07-21T07:06:02;17.15;;;15.45;;
9304;SDS011;4690;52.422;13.486;2022-07-21T07:08:30;18.27;;;15.23;;
9304;SDS011;4690;52.422;13.486;2022-07-21T07:10:57;16.13;;;14.40;;
9304;SDS011;4690;52.422;13.486;2022-07-21T07:13:22;16.70;;;14.52;;
9304;SDS011;4690;52.422;13.486;2022-07-21T07:15:48;16.90;;;14.50;;
9304;SDS011;4690;52.422;13.486;2022-07-21T07:18:14;16.67;;;15.00;;
9304;SDS011;4690;52.422;13.486;2022-07-21T07:20:40;19.88;;;15.15;;
9304;SDS011;4690;52.422;13.486;2022-07-21T07:23:07;17.35;;;14.57;;
9304;SDS011;4690;52.422;13.486;2022-07-21T07:25:33;16.70;;;14.15;;
9304;SDS011;4690;52.422;13.486;2022-07-21T07:27:59;15.80;;;13.95;;
9304;SDS011;4690;52.422;13.486;2022-07-21T07:30:25;15.70;;;14.27;;
9304;SDS011;4690;52.422;13.486;2022-07-21T07:32:51;15.00;;;13.48;;
9304;SDS011;4690;52.422;13.486;2022-07-21T07:35:17;18.10;;;13.40;;
9304;SDS011;4690;52.422;13.486;2022-07-21T07:37:44;15.60;;;13.70;;
9304;SDS011;4690;52.422;13.486;2022-07-21T07:40:15;16.10;;;13.48;;
9304;SDS011;4690;52.422;13.486;2022-07-21T07:42:48;18.27;;;13.82;;
9304;SDS011;4690;52.422;13.486;2022-07-21T07:45:14;14.52;;;12.85;;
9304;SDS011;4690;52.422;13.486;2022-07-21T07:47:40;14.75;;;13.35;;
9304;SDS011;4690;52.422;13.486;2022-07-21T07:50:07;15.25;;;13.65;;
9304;SDS011;4690;52.422;13.486;2022-07-21T07:52:36;15.13;;;13.52;;
9304;SDS011;4690;52.422;13.486;2022-07-21T07:55:03;14.23;;;12.80;;
9304;SDS011;4690;52.422;13.486;2022-07-21T07:57:33;14.93;;;13.23;;
9304;SDS011;4690;52.422;13.486;2022-07-21T08:00:00;16.15;;;12.68;;
9304;SDS011;4690;52.422;13.486;2022-07-21T08:02:31;16.20;;;13.50;;
9304;SDS011;4690;52.422;13.486;2022-07-21T08:04:56;14.88;;;13.00;;
9304;SDS011;4690;52.422;13.486;2022-07-21T08:07:22;15.85;;;14.32;;
9304;SDS011;4690;52.422;13.486;2022-07-21T08:09:48;14.60;;;13.20;;
9304;SDS011;4690;52.422;13.486;2022-07-21T08:12:13;19.98;;;13.20;;
9304;SDS011;4690;52.422;13.486;2022-07-21T08:14:39;13.65;;;12.32;;
9304;SDS011;4690;52.422;13.486;2022-07-21T08:17:05;15.00;;;13.52;;
9304;SDS011;4690;52.422;13.486;2022-07-21T08:19:31;14.98;;;13.15;;
9304;SDS011;4690;52.422;13.486;2022-07-21T08:21:57;16.80;;;12.63;;
9304;SDS011;4690;52.422;13.486;2022-07-21T08:24:23;14.88;;;12.82;;
9304;SDS011;4690;52.422;13.486;2022-07-21T08:26:48;13.65;;;12.35;;
9304;SDS011;4690;52.422;13.486;2022-07-21T08:29:14;14.27;;;12.80;;
9304;SDS011;4690;52.422;13.486;2022-07-21T08:31:40;13.73;;;12.32;;
9304;SDS011;4690;52.422;13.486;2022-07-21T08:34:06;13.23;;;11.82;;
9304;SDS011;4690;52.422;13.486;2022-07-21T08:36:31;13.80;;;11.77;;
9304;SDS011;4690;52.422;13.486;2022-07-21T08:38:57;13.30;;;12.00;;
9304;SDS011;4690;52.422;13.486;2022-07-21T08:41:23;15.07;;;12.68;;
9304;SDS011;4690;52.422;13.486;2022-07-21T08:43:49;13.40;;;12.13;;
9304;SDS011;4690;52.422;13.486;2022-07-21T08:46:15;16.73;;;12.15;;
9304;SDS011;4690;52.422;13.486;2022-07-21T08:48:46;16.20;;;12.85;;
9304;SDS011;4690;52.422;13.486;2022-07-21T08:51:12;13.77;;;11.65;;
9304;SDS011;4690;52.422;13.486;2022-07-21T08:53:43;12.45;;;10.95;;
9304;SDS011;4690;52.422;13.486;2022-07-21T08:56:10;13.00;;;11.70;;
9304;SDS011;4690;52.422;13.486;2022-07-21T08:58:36;13.13;;;11.38;;
9304;SDS011;4690;52.422;13.486;2022-07-21T09:01:02;12.18;;;10.63;;
9304;SDS011;4690;52.422;13.486;2022-07-21T09:03:29;15.30;;;11.63;;
9304;SDS011;4690;52.422;13.486;2022-07-21T09:08:51;11.32;;;10.23;;
9304;SDS011;4690;52.422;13.486;2022-07-21T09:11:21;11.75;;;10.63;;
9304;SDS011;4690;52.422;13.486;2022-07-21T09:14:08;13.32;;;10.43;;
9304;SDS011;4690;52.422;13.486;2022-07-21T09:16:46;12.80;;;10.48;;
9304;SDS011;4690;52.422;13.486;2022-07-21T09:21:51;10.50;;;9.50;;
9304;SDS011;4690;52.422;13.486;2022-07-21T09:24:25;11.13;;;9.95;;
9304;SDS011;4690;52.422;13.486;2022-07-21T09:29:50;10.82;;;9.27;;
9304;SDS011;4690;52.422;13.486;2022-07-21T09:35:01;8.98;;;8.15;;
9304;SDS011;4690;52.422;13.486;2022-07-21T09:37:38;9.57;;;8.25;;
9304;SDS011;4690;52.422;13.486;2022-07-21T09:40:10;8.68;;;7.80;;
9304;SDS011;4690;52.422;13.486;2022-07-21T09:42:48;8.15;;;7.43;;
9304;SDS011;4690;52.422;13.486;2022-07-21T09:45:16;9.77;;;7.18;;
9304;SDS011;4690;52.422;13.486;2022-07-21T09:47:44;10.70;;;7.10;;
9304;SDS011;4690;52.422;13.486;2022-07-21T09:50:12;8.05;;;7.35;;
9304;SDS011;4690;52.422;13.486;2022-07-21T09:52:41;8.90;;;7.93;;
9304;SDS011;4690;52.422;13.486;2022-07-21T09:55:10;9.00;;;8.07;;
9304;SDS011;4690;52.422;13.486;2022-07-21T09:57:41;9.32;;;7.65;;
9304;SDS011;4690;52.422;13.486;2022-07-21T10:00:13;8.32;;;7.45;;
9304;SDS011;4690;52.422;13.486;2022-07-21T10:02:44;8.30;;;7.60;;
9304;SDS011;4690;52.422;13.486;2022-07-21T10:05:15;8.75;;;7.72;;
9304;SDS011;4690;52.422;13.486;2022-07-21T10:07:45;9.75;;;7.70;;
9304;SDS011;4690;52.422;13.486;2022-07-21T10:10:13;8.00;;;7.20;;
9304;SDS011;4690;52.422;13.486;2022-07-21T10:12:40;6.88;;;6.28;;
9304;SDS011;4690;52.422;13.486;2022-07-21T10:15:07;7.72;;;6.40;;
9304;SDS011;4690;52.422;13.486;2022-07-21T10:17:33;13.13;;;6.00;;
9304;SDS011;4690;52.422;13.486;2022-07-21T10:20:08;7.55;;;5.97;;
9304;SDS011;4690;52.422;13.486;2022-07-21T10:25:39;7.18;;;5.93;;
9304;SDS011;4690;52.422;13.486;2022-07-21T10:33:12;6.75;;;6.15;;
9304;SDS011;4690;52.422;13.486;2022-07-21T10:35:46;6.03;;;5.53;;
9304;SDS011;4690;52.422;13.486;2022-07-21T10:38:27;6.75;;;6.10;;
9304;SDS011;4690;52.422;13.486;2022-07-21T10:40:56;5.75;;;5.25;;
9304;SDS011;4690;52.422;13.486;2022-07-21T10:45:51;7.00;;;5.85;;
9304;SDS011;4690;52.422;13.486;2022-07-21T10:51:03;9.70;;;5.95;;
9304;SDS011;4690;52.422;13.486;2022-07-21T10:53:33;5.93;;;5.13;;
9304;SDS011;4690;52.422;13.486;2022-07-21T10:55:59;7.65;;;6.15;;
9304;SDS011;4690;52.422;13.486;2022-07-21T10:58:28;7.15;;;6.40;;
9304;SDS011;4690;52.422;13.486;2022-07-21T11:00:57;7.30;;;6.60;;
9304;SDS011;4690;52.422;13.486;2022-07-21T11:03:33;8.18;;;6.05;;
9304;SDS011;4690;52.422;13.486;2022-07-21T11:09:05;8.23;;;6.03;;
9304;SDS011;4690;52.422;13.486;2022-07-21T11:14:15;6.70;;;5.97;;
9304;SDS011;4690;52.422;13.486;2022-07-21T11:22:00;8.43;;;6.25;;
9304;SDS011;4690;52.422;13.486;2022-07-21T11:24:58;6.95;;;6.15;;
9304;SDS011;4690;52.422;13.486;2022-07-21T11:27:27;8.00;;;6.75;;
9304;SDS011;4690;52.422;13.486;2022-07-21T11:29:56;7.38;;;6.53;;
9304;SDS011;4690;52.422;13.486;2022-07-21T11:32:24;7.10;;;6.50;;
9304;SDS011;4690;52.422;13.486;2022-07-21T11:34:58;7.07;;;6.38;;
9304;SDS011;4690;52.422;13.486;2022-07-21T11:39:54;7.03;;;6.30;;
9304;SDS011;4690;52.422;13.486;2022-07-21T11:42:21;6.80;;;6.20;;
9304;SDS011;4690;52.422;13.486;2022-07-21T11:44:47;9.63;;;6.82;;
9304;SDS011;4690;52.422;13.486;2022-07-21T11:47:14;7.15;;;6.45;;
9304;SDS011;4690;52.422;13.486;2022-07-21T11:49:43;7.85;;;6.63;;
9304;SDS011;4690;52.422;13.486;2022-07-21T11:52:13;9.60;;;7.20;;
9304;SDS011;4690;52.422;13.486;2022-07-21T11:57:15;7.18;;;6.47;;
9304;SDS011;4690;52.422;13.486;2022-07-21T11:59:44;9.07;;;7.25;;
9304;SDS011;4690;52.422;13.486;2022-07-21T12:02:18;8.02;;;6.90;;
9304;SDS011;4690;52.422;13.486;2022-07-21T12:04:47;9.27;;;6.68;;
9304;SDS011;4690;52.422;13.486;2022-07-21T12:07:28;8.52;;;6.65;;
9304;SDS011;4690;52.422;13.486;2022-07-21T12:10:13;6.70;;;5.90;;
9304;SDS011;4690;52.422;13.486;2022-07-21T12:13:01;6.05;;;5.38;;
9304;SDS011;4690;52.422;13.486;2022-07-21T12:15:30;6.00;;;5.40;;
9304;SDS011;4690;52.422;13.486;2022-07-21T12:20:33;7.32;;;5.22;;
9304;SDS011;4690;52.422;13.486;2022-07-21T12:25:51;7.65;;;5.25;;
9304;SDS011;4690;52.422;13.486;2022-07-21T12:28:19;5.53;;;5.03;;
9304;SDS011;4690;52.422;13.486;2022-07-21T12:30:46;4.70;;;4.30;;
9304;SDS011;4690;52.422;13.486;2022-07-21T12:36:02;5.05;;;4.65;;
9304;SDS011;4690;52.422;13.486;2022-07-21T12:41:12;9.77;;;5.60;;
9304;SDS011;4690;52.422;13.486;2022-07-21T12:43:58;9.57;;;5.13;;
9304;SDS011;4690;52.422;13.486;2022-07-21T12:46:29;5.70;;;5.20;;
9304;SDS011;4690;52.422;13.486;2022-07-21T12:49:04;6.07;;;5.45;;
9304;SDS011;4690;52.422;13.486;2022-07-21T12:51:32;5.60;;;5.10;;
9304;SDS011;4690;52.422;13.486;2022-07-21T12:53:57;8.15;;;5.45;;
9304;SDS011;4690;52.422;13.486;2022-07-21T12:56:24;8.40;;;5.22;;
9304;SDS011;4690;52.422;13.486;2022-07-21T12:58:57;5.72;;;5.10;;
9304;SDS011;4690;52.422;13.486;2022-07-21T13:01:26;5.38;;;4.80;;
9304;SDS011;4690;52.422;13.486;2022-07-21T13:03:56;6.70;;;5.00;;
9304;SDS011;4690;52.422;13.486;2022-07-21T13:06:22;5.90;;;5.25;;
9304;SDS011;4690;52.422;13.486;2022-07-21T13:08:48;6.15;;;5.60;;
9304;SDS011;4690;52.422;13.486;2022-07-21T13:11:16;7.05;;;5.40;;
9304;SDS011;4690;52.422;13.486;2022-07-21T13:13:46;6.35;;;4.80;;
9304;SDS011;4690;52.422;13.486;2022-07-21T13:16:14;5.57;;;5.00;;
9304;SDS011;4690;52.422;13.486;2022-07-21T13:18:41;5.57;;;5.07;;
9304;SDS011;4690;52.422;13.486;2022-07-21T13:21:07;9.18;;;5.10;;
9304;SDS011;4690;52.422;13.486;2022-07-21T13:23:33;6.10;;;5.15;;
9304;SDS011;4690;52.422;13.486;2022-07-21T13:25:59;6.78;;;5.85;;
9304;SDS011;4690;52.422;13.486;2022-07-21T13:28:25;6.32;;;5.45;;
9304;SDS011;4690;52.422;13.486;2022-07-21T13:30:51;6.28;;;5.70;;
9304;SDS011;4690;52.422;13.486;2022-07-21T13:33:17;8.80;;;5.85;;
9304;SDS011;4690;52.422;13.486;2022-07-21T13:35:43;9.00;;;6.60;;
9304;SDS011;4690;52.422;13.486;2022-07-21T13:38:09;6.82;;;6.07;;
9304;SDS011;4690;52.422;13.486;2022-07-21T13:40:36;9.02;;;6.35;;
9304;SDS011;4690;52.422;13.486;2022-07-21T13:43:05;7.47;;;6.15;;
9304;SDS011;4690;52.422;13.486;2022-07-21T13:45:31;7.28;;;6.07;;
9304;SDS011;4690;52.422;13.486;2022-07-21T13:47:57;7.13;;;6.45;;
9304;SDS011;4690;52.422;13.486;2022-07-21T13:50:22;8.13;;;7.43;;
9304;SDS011;4690;52.422;13.486;2022-07-21T13:52:48;7.65;;;6.45;;
9304;SDS011;4690;52.422;13.486;2022-07-21T13:55:14;7.68;;;6.88;;
9304;SDS011;4690;52.422;13.486;2022-07-21T13:57:40;9.32;;;7.15;;
9304;SDS011;4690;52.422;13.486;2022-07-21T14:00:06;9.82;;;7.65;;
9304;SDS011;4690;52.422;13.486;2022-07-21T14:02:35;7.82;;;6.85;;
9304;SDS011;4690;52.422;13.486;2022-07-21T14:05:02;8.63;;;7.28;;
9304;SDS011;4690;52.422;13.486;2022-07-21T14:07:28;8.23;;;7.40;;
9304;SDS011;4690;52.422;13.486;2022-07-21T14:09:55;8.77;;;7.95;;
9304;SDS011;4690;52.422;13.486;2022-07-21T14:12:20;8.05;;;7.22;;
9304;SDS011;4690;52.422;13.486;2022-07-21T14:14:47;9.00;;;7.68;;
9304;SDS011;4690;52.422;13.486;2022-07-21T14:17:13;8.23;;;7.43;;
9304;SDS011;4690;52.422;13.486;2022-07-21T14:19:41;8.13;;;7.32;;
9304;SDS011;4690;52.422;13.486;2022-07-21T14:22:08;9.40;;;7.45;;
9304;SDS011;4690;52.422;13.486;2022-07-21T14:24:38;7.75;;;7.10;;
9304;SDS011;4690;52.422;13.486;2022-07-21T14:27:22;8.88;;;7.63;;
9304;SDS011;4690;52.422;13.486;2022-07-21T14:29:48;9.63;;;7.60;;
9304;SDS011;4690;52.422;13.486;2022-07-21T14:32:16;8.15;;;7.35;;
9304;SDS011;4690;52.422;13.486;2022-07-21T14:34:47;8.02;;;7.22;;
9304;SDS011;4690;52.422;13.486;2022-07-21T14:37:20;7.88;;;7.07;;
9304;SDS011;4690;52.422;13.486;2022-07-21T14:39:46;8.13;;;7.32;;
9304;SDS011;4690;52.422;13.486;2022-07-21T14:42:14;9.20;;;7.75;;
9304;SDS011;4690;52.422;13.486;2022-07-21T14:44:40;8.52;;;7.72;;
9304;SDS011;4690;52.422;13.486;2022-07-21T14:47:08;9.10;;;7.35;;
9304;SDS011;4690;52.422;13.486;2022-07-21T14:49:34;8.35;;;7.55;;
9304;SDS011;4690;52.422;13.486;2022-07-21T14:52:01;7.95;;;7.15;;
9304;SDS011;4690;52.422;13.486;2022-07-21T14:54:28;7.55;;;6.85;;
9304;SDS011;4690;52.422;13.486;2022-07-21T14:56:54;7.07;;;6.22;;
9304;SDS011;4690;52.422;13.486;2022-07-21T14:59:20;6.60;;;6.00;;
9304;SDS011;4690;52.422;13.486;2022-07-21T15:01:45;7.28;;;6.57;;
9304;SDS011;4690;52.422;13.486;2022-07-21T15:04:11;8.95;;;6.30;;
9304;SDS011;4690;52.422;13.486;2022-07-21T15:06:37;7.07;;;6.38;;
9304;SDS011;4690;52.422;13.486;2022-07-21T15:09:03;6.45;;;5.85;;
9304;SDS011;4690;52.422;13.486;2022-07-21T15:11:29;6.60;;;5.95;;
9304;SDS011;4690;52.422;13.486;2022-07-21T15:13:55;7.72;;;6.38;;
9304;SDS011;4690;52.422;13.486;2022-07-21T15:16:20;6.05;;;5.55;;
9304;SDS011;4690;52.422;13.486;2022-07-21T15:18:46;5.70;;;5.30;;
9304;SDS011;4690;52.422;13.486;2022-07-21T15:21:12;6.63;;;6.03;;
9304;SDS011;4690;52.422;13.486;2022-07-21T15:23:38;7.13;;;5.72;;
9304;SDS011;4690;52.422;13.486;2022-07-21T15:26:04;6.85;;;6.25;;
9304;SDS011;4690;52.422;13.486;2022-07-21T15:28:30;6.47;;;5.90;;
9304;SDS011;4690;52.422;13.486;2022-07-21T15:30:56;7.38;;;6.68;;
9304;SDS011;4690;52.422;13.486;2022-07-21T15:33:21;7.55;;;6.80;;
9304;SDS011;4690;52.422;13.486;2022-07-21T15:35:47;7.20;;;6.50;;
9304;SDS011;4690;52.422;13.486;2022-07-21T15:38:16;6.97;;;6.38;;
9304;SDS011;4690;52.422;13.486;2022-07-21T15:40:42;6.65;;;6.05;;
9304;SDS011;4690;52.422;13.486;2022-07-21T15:43:08;7.38;;;6.50;;
9304;SDS011;4690;52.422;13.486;2022-07-21T15:45:33;7.05;;;6.40;;
9304;SDS011;4690;52.422;13.486;2022-07-21T15:47:59;7.32;;;6.60;;
9304;SDS011;4690;52.422;13.486;2022-07-21T15:50:25;6.95;;;6.35;;